sensor_id;sensor_type;location;lat;lon;timestamp;P1;durP1;ratioP1;P2;durP2;ratioP2
21046;SDS011;10682;50.874;3.656;2022-10-19T00:01:12;8.70;;;2.93;;
21046;SDS011;10682;50.874;3.656;2022-10-19T00:03:47;11.83;;;3.53;;
21046;SDS011;10682;50.874;3.656;2022-10-19T00:06:17;14.80;;;4.20;;
21046;SDS011;10682;50.874;3.656;2022-10-19T00:09:00;12.93;;;3.87;;
21046;SDS011;10682;50.874;3.656;2022-10-19T00:11:38;15.20;;;4.40;;
21046;SDS011;10682;50.874;3.656;2022-10-19T00:14:10;12.10;;;3.93;;
21046;SDS011;10682;50.874;3.656;2022-10-19T00:16:41;14.03;;;3.67;;
21046;SDS011;10682;50.874;3.656;2022-10-19T00:19:12;15.77;;;4.07;;
21046;SDS011;10682;50.874;3.656;2022-10-19T00:21:57;16.70;;;4.10;;
21046;SDS011;10682;50.874;3.656;2022-10-19T00:24:24;17.37;;;4.77;;
21046;SDS011;10682;50.874;3.656;2022-10-19T00:26:51;17.20;;;4.67;;
21046;SDS011;10682;50.874;3.656;2022-10-19T00:29:18;13.90;;;4.77;;
21046;SDS011;10682;50.874;3.656;2022-10-19T00:31:44;14.03;;;4.60;;
21046;SDS011;10682;50.874;3.656;2022-10-19T00:34:15;13.37;;;5.07;;
21046;SDS011;10682;50.874;3.656;2022-10-19T00:36:42;10.63;;;4.47;;
21046;SDS011;10682;50.874;3.656;2022-10-19T00:39:10;16.50;;;5.47;;
21046;SDS011;10682;50.874;3.656;2022-10-19T00:41:42;14.20;;;4.47;;
21046;SDS011;10682;50.874;3.656;2022-10-19T00:46:40;18.80;;;6.37;;
21046;SDS011;10682;50.874;3.656;2022-10-19T00:51:48;18.83;;;5.90;;
21046;SDS011;10682;50.874;3.656;2022-10-19T00:54:20;14.93;;;5.40;;
21046;SDS011;10682;50.874;3.656;2022-10-19T00:56:48;18.13;;;5.33;;
21046;SDS011;10682;50.874;3.656;2022-10-19T00:59:19;19.27;;;5.60;;
21046;SDS011;10682;50.874;3.656;2022-10-19T01:01:47;13.77;;;5.47;;
21046;SDS011;10682;50.874;3.656;2022-10-19T01:04:15;13.03;;;5.23;;
21046;SDS011;10682;50.874;3.656;2022-10-19T01:06:42;18.57;;;6.27;;
21046;SDS011;10682;50.874;3.656;2022-10-19T01:09:09;21.53;;;6.00;;
21046;SDS011;10682;50.874;3.656;2022-10-19T01:20:07;14.70;;;5.67;;
21046;SDS011;10682;50.874;3.656;2022-10-19T01:34:24;15.23;;;5.93;;
21046;SDS011;10682;50.874;3.656;2022-10-19T01:36:58;16.10;;;5.80;;
21046;SDS011;10682;50.874;3.656;2022-10-19T01:39:54;16.03;;;5.57;;
21046;SDS011;10682;50.874;3.656;2022-10-19T01:42:31;19.50;;;6.00;;
21046;SDS011;10682;50.874;3.656;2022-10-19T01:45:16;16.10;;;6.03;;
21046;SDS011;10682;50.874;3.656;2022-10-19T01:48:00;22.93;;;6.10;;
21046;SDS011;10682;50.874;3.656;2022-10-19T01:50:34;20.97;;;6.10;;
21046;SDS011;10682;50.874;3.656;2022-10-19T01:53:14;20.07;;;5.80;;
21046;SDS011;10682;50.874;3.656;2022-10-19T01:55:44;17.80;;;6.47;;
21046;SDS011;10682;50.874;3.656;2022-10-19T01:58:17;14.80;;;5.20;;
21046;SDS011;10682;50.874;3.656;2022-10-19T02:00:51;17.43;;;5.67;;
21046;SDS011;10682;50.874;3.656;2022-10-19T02:03:22;22.10;;;5.80;;
21046;SDS011;10682;50.874;3.656;2022-10-19T02:05:51;18.50;;;5.70;;
21046;SDS011;10682;50.874;3.656;2022-10-19T02:08:21;16.60;;;5.67;;
21046;SDS011;10682;50.874;3.656;2022-10-19T02:11:00;19.00;;;5.27;;
21046;SDS011;10682;50.874;3.656;2022-10-19T02:13:28;13.90;;;5.17;;
21046;SDS011;10682;50.874;3.656;2022-10-19T02:15:58;20.87;;;5.50;;
21046;SDS011;10682;50.874;3.656;2022-10-19T02:18:30;16.57;;;6.03;;
21046;SDS011;10682;50.874;3.656;2022-10-19T02:21:03;18.50;;;5.40;;
21046;SDS011;10682;50.874;3.656;2022-10-19T02:23:32;19.53;;;5.90;;
21046;SDS011;10682;50.874;3.656;2022-10-19T02:25:59;14.10;;;5.73;;
21046;SDS011;10682;50.874;3.656;2022-10-19T02:28:26;16.83;;;5.73;;
21046;SDS011;10682;50.874;3.656;2022-10-19T02:30:55;19.83;;;5.63;;
21046;SDS011;10682;50.874;3.656;2022-10-19T02:33:23;23.37;;;6.00;;
21046;SDS011;10682;50.874;3.656;2022-10-19T02:35:51;19.07;;;6.60;;
21046;SDS011;10682;50.874;3.656;2022-10-19T02:38:19;21.23;;;5.80;;
21046;SDS011;10682;50.874;3.656;2022-10-19T02:41:04;22.87;;;5.70;;
21046;SDS011;10682;50.874;3.656;2022-10-19T02:43:41;25.80;;;5.80;;
21046;SDS011;10682;50.874;3.656;2022-10-19T02:48:47;13.13;;;5.33;;
21046;SDS011;10682;50.874;3.656;2022-10-19T02:52:17;16.30;;;5.90;;
21046;SDS011;10682;50.874;3.656;2022-10-19T02:54:31;17.47;;;5.70;;
21046;SDS011;10682;50.874;3.656;2022-10-19T02:56:58;15.30;;;6.30;;
21046;SDS011;10682;50.874;3.656;2022-10-19T02:59:25;17.60;;;5.43;;
21046;SDS011;10682;50.874;3.656;2022-10-19T03:01:52;18.57;;;6.07;;
21046;SDS011;10682;50.874;3.656;2022-10-19T03:04:19;15.77;;;5.77;;
21046;SDS011;10682;50.874;3.656;2022-10-19T03:06:46;20.67;;;6.40;;
21046;SDS011;10682;50.874;3.656;2022-10-19T03:09:13;21.53;;;5.97;;
21046;SDS011;10682;50.874;3.656;2022-10-19T03:11:40;19.17;;;6.47;;
21046;SDS011;10682;50.874;3.656;2022-10-19T03:14:07;17.43;;;6.03;;
21046;SDS011;10682;50.874;3.656;2022-10-19T03:16:34;17.07;;;6.03;;
21046;SDS011;10682;50.874;3.656;2022-10-19T03:19:01;14.80;;;5.87;;
21046;SDS011;10682;50.874;3.656;2022-10-19T03:21:28;21.23;;;6.83;;
21046;SDS011;10682;50.874;3.656;2022-10-19T03:23:55;20.63;;;6.53;;
21046;SDS011;10682;50.874;3.656;2022-10-19T03:26:22;23.83;;;6.70;;
21046;SDS011;10682;50.874;3.656;2022-10-19T03:28:48;21.90;;;6.40;;
21046;SDS011;10682;50.874;3.656;2022-10-19T03:31:16;17.33;;;6.50;;
21046;SDS011;10682;50.874;3.656;2022-10-19T03:33:44;17.83;;;6.43;;
21046;SDS011;10682;50.874;3.656;2022-10-19T03:36:11;16.27;;;5.83;;
21046;SDS011;10682;50.874;3.656;2022-10-19T03:38:50;17.67;;;6.67;;
21046;SDS011;10682;50.874;3.656;2022-10-19T03:41:20;16.10;;;6.10;;
21046;SDS011;10682;50.874;3.656;2022-10-19T03:43:49;19.83;;;6.83;;
21046;SDS011;10682;50.874;3.656;2022-10-19T03:46:16;20.83;;;6.13;;
21046;SDS011;10682;50.874;3.656;2022-10-19T03:48:44;23.03;;;8.13;;
21046;SDS011;10682;50.874;3.656;2022-10-19T03:51:15;19.63;;;6.40;;
21046;SDS011;10682;50.874;3.656;2022-10-19T03:53:46;20.27;;;6.60;;
21046;SDS011;10682;50.874;3.656;2022-10-19T03:56:19;19.37;;;6.13;;
21046;SDS011;10682;50.874;3.656;2022-10-19T03:58:49;24.40;;;6.93;;
21046;SDS011;10682;50.874;3.656;2022-10-19T04:01:22;16.30;;;6.70;;
21046;SDS011;10682;50.874;3.656;2022-10-19T04:03:59;18.00;;;7.00;;
21046;SDS011;10682;50.874;3.656;2022-10-19T04:06:32;20.23;;;6.83;;
21046;SDS011;10682;50.874;3.656;2022-10-19T04:09:02;18.47;;;6.73;;
21046;SDS011;10682;50.874;3.656;2022-10-19T04:11:31;16.57;;;6.73;;
21046;SDS011;10682;50.874;3.656;2022-10-19T04:13:59;23.83;;;7.17;;
21046;SDS011;10682;50.874;3.656;2022-10-19T04:16:27;25.73;;;7.20;;
21046;SDS011;10682;50.874;3.656;2022-10-19T04:18:55;23.63;;;7.37;;
21046;SDS011;10682;50.874;3.656;2022-10-19T04:21:30;22.77;;;7.40;;
21046;SDS011;10682;50.874;3.656;2022-10-19T04:24:04;19.67;;;7.33;;
21046;SDS011;10682;50.874;3.656;2022-10-19T04:26:37;22.73;;;7.97;;
21046;SDS011;10682;50.874;3.656;2022-10-19T04:29:09;17.90;;;7.13;;
21046;SDS011;10682;50.874;3.656;2022-10-19T04:31:37;21.17;;;8.07;;
21046;SDS011;10682;50.874;3.656;2022-10-19T04:34:05;23.77;;;9.77;;
21046;SDS011;10682;50.874;3.656;2022-10-19T04:36:33;22.70;;;7.57;;
21046;SDS011;10682;50.874;3.656;2022-10-19T04:39:00;20.33;;;7.70;;
21046;SDS011;10682;50.874;3.656;2022-10-19T04:41:28;19.17;;;7.53;;
21046;SDS011;10682;50.874;3.656;2022-10-19T04:43:56;20.50;;;8.50;;
21046;SDS011;10682;50.874;3.656;2022-10-19T04:46:25;19.27;;;7.77;;
21046;SDS011;10682;50.874;3.656;2022-10-19T04:48:54;23.77;;;7.87;;
21046;SDS011;10682;50.874;3.656;2022-10-19T04:51:22;19.43;;;7.97;;
21046;SDS011;10682;50.874;3.656;2022-10-19T04:53:50;25.03;;;8.53;;
21046;SDS011;10682;50.874;3.656;2022-10-19T04:56:24;26.87;;;8.20;;
21046;SDS011;10682;50.874;3.656;2022-10-19T04:58:53;19.30;;;7.70;;
21046;SDS011;10682;50.874;3.656;2022-10-19T05:01:23;28.93;;;7.80;;
21046;SDS011;10682;50.874;3.656;2022-10-19T05:03:55;22.33;;;7.83;;
21046;SDS011;10682;50.874;3.656;2022-10-19T05:06:24;22.33;;;8.30;;
21046;SDS011;10682;50.874;3.656;2022-10-19T05:08:52;22.23;;;7.77;;
21046;SDS011;10682;50.874;3.656;2022-10-19T05:11:19;22.30;;;7.93;;
21046;SDS011;10682;50.874;3.656;2022-10-19T05:13:46;21.13;;;8.43;;
21046;SDS011;10682;50.874;3.656;2022-10-19T05:16:17;18.77;;;8.20;;
21046;SDS011;10682;50.874;3.656;2022-10-19T05:18:50;22.10;;;8.33;;
21046;SDS011;10682;50.874;3.656;2022-10-19T05:21:21;21.57;;;8.13;;
21046;SDS011;10682;50.874;3.656;2022-10-19T05:23:51;17.80;;;8.60;;
21046;SDS011;10682;50.874;3.656;2022-10-19T05:26:23;21.63;;;8.33;;
21046;SDS011;10682;50.874;3.656;2022-10-19T05:28:53;26.33;;;8.57;;
21046;SDS011;10682;50.874;3.656;2022-10-19T05:31:23;22.23;;;8.40;;
21046;SDS011;10682;50.874;3.656;2022-10-19T05:33:56;31.70;;;8.80;;
21046;SDS011;10682;50.874;3.656;2022-10-19T05:36:27;24.40;;;8.60;;
21046;SDS011;10682;50.874;3.656;2022-10-19T05:39:03;23.13;;;9.00;;
21046;SDS011;10682;50.874;3.656;2022-10-19T05:41:37;26.17;;;9.07;;
21046;SDS011;10682;50.874;3.656;2022-10-19T05:44:04;24.50;;;9.00;;
21046;SDS011;10682;50.874;3.656;2022-10-19T05:46:31;36.33;;;10.00;;
21046;SDS011;10682;50.874;3.656;2022-10-19T05:48:59;22.90;;;9.57;;
21046;SDS011;10682;50.874;3.656;2022-10-19T05:51:26;33.27;;;9.57;;
21046;SDS011;10682;50.874;3.656;2022-10-19T05:53:54;25.10;;;9.70;;
21046;SDS011;10682;50.874;3.656;2022-10-19T05:56:25;32.07;;;9.40;;
21046;SDS011;10682;50.874;3.656;2022-10-19T05:58:56;27.03;;;9.27;;
21046;SDS011;10682;50.874;3.656;2022-10-19T06:01:25;24.80;;;9.73;;
21046;SDS011;10682;50.874;3.656;2022-10-19T06:03:54;18.53;;;8.57;;
21046;SDS011;10682;50.874;3.656;2022-10-19T06:06:22;24.80;;;8.70;;
21046;SDS011;10682;50.874;3.656;2022-10-19T06:08:51;28.60;;;9.33;;
21046;SDS011;10682;50.874;3.656;2022-10-19T06:11:31;26.83;;;9.40;;
21046;SDS011;10682;50.874;3.656;2022-10-19T06:14:02;32.07;;;9.17;;
21046;SDS011;10682;50.874;3.656;2022-10-19T06:16:32;27.03;;;9.30;;
21046;SDS011;10682;50.874;3.656;2022-10-19T06:18:59;23.10;;;9.30;;
21046;SDS011;10682;50.874;3.656;2022-10-19T06:21:28;24.97;;;9.70;;
21046;SDS011;10682;50.874;3.656;2022-10-19T06:23:57;21.90;;;8.90;;
21046;SDS011;10682;50.874;3.656;2022-10-19T06:26:27;23.67;;;10.13;;
21046;SDS011;10682;50.874;3.656;2022-10-19T06:28:57;26.90;;;10.10;;
21046;SDS011;10682;50.874;3.656;2022-10-19T06:31:29;26.03;;;9.80;;
21046;SDS011;10682;50.874;3.656;2022-10-19T06:33:59;25.07;;;9.50;;
21046;SDS011;10682;50.874;3.656;2022-10-19T06:36:27;26.87;;;11.23;;
21046;SDS011;10682;50.874;3.656;2022-10-19T06:38:56;27.97;;;10.33;;
21046;SDS011;10682;50.874;3.656;2022-10-19T06:41:27;24.43;;;9.97;;
21046;SDS011;10682;50.874;3.656;2022-10-19T06:43:56;22.17;;;10.20;;
21046;SDS011;10682;50.874;3.656;2022-10-19T06:46:23;25.50;;;9.67;;
21046;SDS011;10682;50.874;3.656;2022-10-19T06:48:53;31.93;;;10.33;;
21046;SDS011;10682;50.874;3.656;2022-10-19T06:51:23;24.20;;;10.87;;
21046;SDS011;10682;50.874;3.656;2022-10-19T06:53:52;24.63;;;10.70;;
21046;SDS011;10682;50.874;3.656;2022-10-19T06:56:22;25.33;;;10.17;;
21046;SDS011;10682;50.874;3.656;2022-10-19T06:58:51;21.70;;;9.90;;
21046;SDS011;10682;50.874;3.656;2022-10-19T07:01:19;18.63;;;10.10;;
21046;SDS011;10682;50.874;3.656;2022-10-19T07:03:48;25.40;;;10.23;;
21046;SDS011;10682;50.874;3.656;2022-10-19T07:06:19;24.93;;;10.70;;
21046;SDS011;10682;50.874;3.656;2022-10-19T07:08:48;29.90;;;10.73;;
21046;SDS011;10682;50.874;3.656;2022-10-19T07:11:16;29.90;;;10.10;;
21046;SDS011;10682;50.874;3.656;2022-10-19T07:13:45;21.27;;;9.80;;
21046;SDS011;10682;50.874;3.656;2022-10-19T07:16:12;23.93;;;9.90;;
21046;SDS011;10682;50.874;3.656;2022-10-19T07:18:46;19.40;;;9.37;;
21046;SDS011;10682;50.874;3.656;2022-10-19T07:21:16;25.80;;;9.97;;
21046;SDS011;10682;50.874;3.656;2022-10-19T07:23:45;28.10;;;9.40;;
21046;SDS011;10682;50.874;3.656;2022-10-19T07:28:46;30.43;;;9.97;;
21046;SDS011;10682;50.874;3.656;2022-10-19T07:31:15;26.73;;;9.57;;
21046;SDS011;10682;50.874;3.656;2022-10-19T07:33:50;26.67;;;9.70;;
21046;SDS011;10682;50.874;3.656;2022-10-19T07:36:22;24.30;;;9.70;;
21046;SDS011;10682;50.874;3.656;2022-10-19T07:38:50;25.77;;;9.47;;
21046;SDS011;10682;50.874;3.656;2022-10-19T07:41:18;27.90;;;9.70;;
21046;SDS011;10682;50.874;3.656;2022-10-19T07:43:47;25.30;;;9.33;;
21046;SDS011;10682;50.874;3.656;2022-10-19T07:46:16;20.50;;;9.17;;
21046;SDS011;10682;50.874;3.656;2022-10-19T07:48:49;18.87;;;9.10;;
21046;SDS011;10682;50.874;3.656;2022-10-19T07:51:16;21.67;;;9.50;;
21046;SDS011;10682;50.874;3.656;2022-10-19T07:53:45;27.27;;;9.50;;
21046;SDS011;10682;50.874;3.656;2022-10-19T07:56:13;18.70;;;8.83;;
21046;SDS011;10682;50.874;3.656;2022-10-19T07:58:43;18.30;;;9.07;;
21046;SDS011;10682;50.874;3.656;2022-10-19T08:01:11;29.37;;;8.87;;
21046;SDS011;10682;50.874;3.656;2022-10-19T08:03:41;25.20;;;8.97;;
21046;SDS011;10682;50.874;3.656;2022-10-19T08:06:29;19.87;;;8.17;;
21046;SDS011;10682;50.874;3.656;2022-10-19T08:08:56;25.27;;;9.00;;
21046;SDS011;10682;50.874;3.656;2022-10-19T08:11:28;25.60;;;8.73;;
21046;SDS011;10682;50.874;3.656;2022-10-19T08:13:57;20.43;;;7.93;;
21046;SDS011;10682;50.874;3.656;2022-10-19T08:16:26;20.83;;;8.50;;
21046;SDS011;10682;50.874;3.656;2022-10-19T08:19:00;15.47;;;7.37;;
21046;SDS011;10682;50.874;3.656;2022-10-19T08:21:35;14.77;;;7.20;;
21046;SDS011;10682;50.874;3.656;2022-10-19T08:24:04;18.13;;;7.27;;
21046;SDS011;10682;50.874;3.656;2022-10-19T08:26:33;18.30;;;7.33;;
21046;SDS011;10682;50.874;3.656;2022-10-19T08:31:41;18.73;;;7.40;;
21046;SDS011;10682;50.874;3.656;2022-10-19T08:34:09;18.80;;;7.00;;
21046;SDS011;10682;50.874;3.656;2022-10-19T08:36:37;18.50;;;7.13;;
21046;SDS011;10682;50.874;3.656;2022-10-19T08:39:06;23.43;;;7.47;;
21046;SDS011;10682;50.874;3.656;2022-10-19T08:49:51;19.27;;;7.47;;
21046;SDS011;10682;50.874;3.656;2022-10-19T08:52:40;20.20;;;7.10;;
21046;SDS011;10682;50.874;3.656;2022-10-19T08:55:09;23.43;;;7.47;;
21046;SDS011;10682;50.874;3.656;2022-10-19T09:00:38;24.40;;;8.10;;
21046;SDS011;10682;50.874;3.656;2022-10-19T09:03:20;18.70;;;7.28;;
21046;SDS011;10682;50.874;3.656;2022-10-19T09:06:31;17.13;;;7.43;;
21046;SDS011;10682;50.874;3.656;2022-10-19T09:09:11;21.20;;;7.45;;
21046;SDS011;10682;50.874;3.656;2022-10-19T09:11:41;22.65;;;7.65;;
21046;SDS011;10682;50.874;3.656;2022-10-19T09:16:59;17.98;;;7.15;;
21046;SDS011;10682;50.874;3.656;2022-10-19T09:19:31;25.95;;;8.23;;
21046;SDS011;10682;50.874;3.656;2022-10-19T09:22:03;20.80;;;7.47;;
21046;SDS011;10682;50.874;3.656;2022-10-19T09:24:41;15.85;;;7.05;;
21046;SDS011;10682;50.874;3.656;2022-10-19T09:27:24;18.35;;;7.70;;
21046;SDS011;10682;50.874;3.656;2022-10-19T09:30:02;18.70;;;7.57;;
21046;SDS011;10682;50.874;3.656;2022-10-19T09:32:42;22.83;;;8.35;;
21046;SDS011;10682;50.874;3.656;2022-10-19T09:35:29;17.65;;;7.45;;
21046;SDS011;10682;50.874;3.656;2022-10-19T09:38:03;17.13;;;7.43;;
21046;SDS011;10682;50.874;3.656;2022-10-19T09:40:32;15.82;;;8.20;;
21046;SDS011;10682;50.874;3.656;2022-10-19T09:43:00;19.88;;;7.90;;
21046;SDS011;10682;50.874;3.656;2022-10-19T09:45:51;15.98;;;7.53;;
21046;SDS011;10682;50.874;3.656;2022-10-19T09:48:32;19.40;;;7.45;;
21046;SDS011;10682;50.874;3.656;2022-10-19T09:51:11;22.13;;;8.20;;
21046;SDS011;10682;50.874;3.656;2022-10-19T09:53:49;21.83;;;8.07;;
21046;SDS011;10682;50.874;3.656;2022-10-19T09:56:20;17.98;;;7.70;;
21046;SDS011;10682;50.874;3.656;2022-10-19T09:58:53;19.73;;;7.13;;
21046;SDS011;10682;50.874;3.656;2022-10-19T10:01:29;27.13;;;8.70;;
21046;SDS011;10682;50.874;3.656;2022-10-19T10:06:41;19.38;;;8.02;;
21046;SDS011;10682;50.874;3.656;2022-10-19T10:09:16;19.02;;;8.40;;
21046;SDS011;10682;50.874;3.656;2022-10-19T10:11:48;22.58;;;8.00;;
21046;SDS011;10682;50.874;3.656;2022-10-19T10:17:00;19.50;;;8.10;;
21046;SDS011;10682;50.874;3.656;2022-10-19T10:19:33;20.27;;;8.23;;
21046;SDS011;10682;50.874;3.656;2022-10-19T10:22:03;25.40;;;8.95;;
21046;SDS011;10682;50.874;3.656;2022-10-19T10:24:30;26.70;;;8.57;;
21046;SDS011;10682;50.874;3.656;2022-10-19T10:27:00;25.33;;;9.10;;
21046;SDS011;10682;50.874;3.656;2022-10-19T10:29:32;17.25;;;8.68;;
21046;SDS011;10682;50.874;3.656;2022-10-19T10:32:06;25.83;;;9.07;;
21046;SDS011;10682;50.874;3.656;2022-10-19T10:34:39;18.35;;;8.02;;
21046;SDS011;10682;50.874;3.656;2022-10-19T10:37:24;22.27;;;9.13;;
21046;SDS011;10682;50.874;3.656;2022-10-19T10:40:21;25.10;;;9.15;;
21046;SDS011;10682;50.874;3.656;2022-10-19T10:42:53;18.60;;;8.70;;
21046;SDS011;10682;50.874;3.656;2022-10-19T10:45:30;26.63;;;9.13;;
21046;SDS011;10682;50.874;3.656;2022-10-19T10:50:55;21.25;;;9.00;;
21046;SDS011;10682;50.874;3.656;2022-10-19T10:53:30;19.20;;;8.68;;
21046;SDS011;10682;50.874;3.656;2022-10-19T10:56:03;26.08;;;9.18;;
21046;SDS011;10682;50.874;3.656;2022-10-19T11:01:23;21.38;;;9.15;;
21046;SDS011;10682;50.874;3.656;2022-10-19T11:04:25;16.75;;;8.55;;
21046;SDS011;10682;50.874;3.656;2022-10-19T11:07:00;20.80;;;9.20;;
21046;SDS011;10682;50.874;3.656;2022-10-19T11:09:41;24.52;;;10.05;;
21046;SDS011;10682;50.874;3.656;2022-10-19T11:12:18;21.73;;;9.63;;
21046;SDS011;10682;50.874;3.656;2022-10-19T11:15:05;22.45;;;9.65;;
21046;SDS011;10682;50.874;3.656;2022-10-19T11:17:40;21.88;;;8.60;;
21046;SDS011;10682;50.874;3.656;2022-10-19T11:20:19;24.48;;;9.13;;
21046;SDS011;10682;50.874;3.656;2022-10-19T11:28:44;23.00;;;8.68;;
21046;SDS011;10682;50.874;3.656;2022-10-19T11:31:41;17.17;;;8.05;;
21046;SDS011;10682;50.874;3.656;2022-10-19T11:40:52;20.33;;;8.80;;
21046;SDS011;10682;50.874;3.656;2022-10-19T12:05:46;22.05;;;7.95;;
21046;SDS011;10682;50.874;3.656;2022-10-19T12:14:30;18.92;;;8.18;;
21046;SDS011;10682;50.874;3.656;2022-10-19T12:17:07;24.85;;;7.97;;
21046;SDS011;10682;50.874;3.656;2022-10-19T12:19:41;20.70;;;7.55;;
21046;SDS011;10682;50.874;3.656;2022-10-19T12:22:18;21.15;;;8.02;;
21046;SDS011;10682;50.874;3.656;2022-10-19T12:24:51;23.42;;;8.25;;
21046;SDS011;10682;50.874;3.656;2022-10-19T12:27:23;19.45;;;7.88;;
21046;SDS011;10682;50.874;3.656;2022-10-19T12:30:05;18.98;;;8.07;;
21046;SDS011;10682;50.874;3.656;2022-10-19T12:32:42;18.42;;;7.57;;
21046;SDS011;10682;50.874;3.656;2022-10-19T12:38:32;15.85;;;7.40;;
21046;SDS011;10682;50.874;3.656;2022-10-19T12:41:29;22.65;;;8.50;;
21046;SDS011;10682;50.874;3.656;2022-10-19T12:44:17;21.45;;;7.47;;
21046;SDS011;10682;50.874;3.656;2022-10-19T12:47:11;20.67;;;8.13;;
21046;SDS011;10682;50.874;3.656;2022-10-19T12:49:45;16.83;;;7.63;;
21046;SDS011;10682;50.874;3.656;2022-10-19T12:52:39;26.92;;;8.18;;
21046;SDS011;10682;50.874;3.656;2022-10-19T12:57:45;16.77;;;7.60;;
21046;SDS011;10682;50.874;3.656;2022-10-19T13:00:18;22.70;;;8.07;;
21046;SDS011;10682;50.874;3.656;2022-10-19T13:02:47;20.02;;;7.82;;
21046;SDS011;10682;50.874;3.656;2022-10-19T13:05:33;17.38;;;8.18;;
21046;SDS011;10682;50.874;3.656;2022-10-19T13:08:02;18.38;;;7.97;;
21046;SDS011;10682;50.874;3.656;2022-10-19T13:10:34;22.20;;;8.75;;
21046;SDS011;10682;50.874;3.656;2022-10-19T13:13:01;19.55;;;8.10;;
21046;SDS011;10682;50.874;3.656;2022-10-19T13:18:10;22.83;;;7.57;;
21046;SDS011;10682;50.874;3.656;2022-10-19T13:20:47;15.13;;;7.25;;
21046;SDS011;10682;50.874;3.656;2022-10-19T13:28:57;22.33;;;7.93;;
21046;SDS011;10682;50.874;3.656;2022-10-19T13:31:26;19.98;;;8.18;;
21046;SDS011;10682;50.874;3.656;2022-10-19T13:33:56;22.10;;;8.32;;
21046;SDS011;10682;50.874;3.656;2022-10-19T13:36:23;17.33;;;7.82;;
21046;SDS011;10682;50.874;3.656;2022-10-19T13:41:24;17.38;;;8.00;;
21046;SDS011;10682;50.874;3.656;2022-10-19T13:49:31;18.05;;;8.65;;
21046;SDS011;10682;50.874;3.656;2022-10-19T14:04:00;20.10;;;7.82;;
21046;SDS011;10682;50.874;3.656;2022-10-19T14:07:03;20.85;;;8.93;;
21046;SDS011;10682;50.874;3.656;2022-10-19T14:12:21;22.35;;;8.82;;
21046;SDS011;10682;50.874;3.656;2022-10-19T14:14:50;23.55;;;8.68;;
21046;SDS011;10682;50.874;3.656;2022-10-19T14:17:23;22.50;;;7.78;;
21046;SDS011;10682;50.874;3.656;2022-10-19T14:19:56;19.52;;;7.97;;
21046;SDS011;10682;50.874;3.656;2022-10-19T14:22:31;19.83;;;8.73;;
21046;SDS011;10682;50.874;3.656;2022-10-19T14:25:03;18.33;;;8.23;;
21046;SDS011;10682;50.874;3.656;2022-10-19T14:27:46;22.50;;;8.30;;
21046;SDS011;10682;50.874;3.656;2022-10-19T14:30:23;18.63;;;7.93;;
21046;SDS011;10682;50.874;3.656;2022-10-19T14:32:58;24.73;;;7.88;;
21046;SDS011;10682;50.874;3.656;2022-10-19T14:35:29;18.23;;;8.55;;
21046;SDS011;10682;50.874;3.656;2022-10-19T14:38:02;22.98;;;8.70;;
21046;SDS011;10682;50.874;3.656;2022-10-19T14:40:36;25.33;;;8.45;;
21046;SDS011;10682;50.874;3.656;2022-10-19T14:48:33;21.05;;;8.13;;
21046;SDS011;10682;50.874;3.656;2022-10-19T14:51:21;15.63;;;7.53;;
21046;SDS011;10682;50.874;3.656;2022-10-19T14:54:22;19.05;;;7.57;;
21046;SDS011;10682;50.874;3.656;2022-10-19T14:57:12;16.38;;;8.27;;
21046;SDS011;10682;50.874;3.656;2022-10-19T14:59:45;17.27;;;8.38;;
21046;SDS011;10682;50.874;3.656;2022-10-19T15:04:46;18.15;;;7.68;;
21046;SDS011;10682;50.874;3.656;2022-10-19T15:07:19;26.10;;;8.13;;
21046;SDS011;10682;50.874;3.656;2022-10-19T15:09:59;17.15;;;7.28;;
21046;SDS011;10682;50.874;3.656;2022-10-19T15:12:37;21.52;;;8.18;;
21046;SDS011;10682;50.874;3.656;2022-10-19T15:15:07;19.75;;;7.85;;
21046;SDS011;10682;50.874;3.656;2022-10-19T15:17:47;18.63;;;8.18;;
21046;SDS011;10682;50.874;3.656;2022-10-19T15:28:42;12.65;;;6.93;;
21046;SDS011;10682;50.874;3.656;2022-10-19T15:31:17;17.15;;;6.97;;
21046;SDS011;10682;50.874;3.656;2022-10-19T15:33:54;15.95;;;7.22;;
21046;SDS011;10682;50.874;3.656;2022-10-19T15:36:23;19.05;;;6.60;;
21046;SDS011;10682;50.874;3.656;2022-10-19T15:38:59;19.85;;;7.75;;
21046;SDS011;10682;50.874;3.656;2022-10-19T15:41:50;17.00;;;7.60;;
21046;SDS011;10682;50.874;3.656;2022-10-19T15:52:16;17.10;;;6.85;;
21046;SDS011;10682;50.874;3.656;2022-10-19T15:54:49;14.02;;;7.53;;
21046;SDS011;10682;50.874;3.656;2022-10-19T15:57:33;17.67;;;7.05;;
21046;SDS011;10682;50.874;3.656;2022-10-19T16:00:10;19.27;;;7.68;;
21046;SDS011;10682;50.874;3.656;2022-10-19T16:02:40;20.85;;;7.70;;
21046;SDS011;10682;50.874;3.656;2022-10-19T16:05:07;18.90;;;7.90;;
21046;SDS011;10682;50.874;3.656;2022-10-19T16:07:35;20.08;;;7.88;;
21046;SDS011;10682;50.874;3.656;2022-10-19T16:10:04;19.33;;;8.43;;
21046;SDS011;10682;50.874;3.656;2022-10-19T16:12:33;16.15;;;7.05;;
21046;SDS011;10682;50.874;3.656;2022-10-19T16:15:01;17.83;;;7.22;;
21046;SDS011;10682;50.874;3.656;2022-10-19T16:17:28;18.70;;;8.65;;
21046;SDS011;10682;50.874;3.656;2022-10-19T16:19:55;17.90;;;7.68;;
21046;SDS011;10682;50.874;3.656;2022-10-19T16:22:22;17.05;;;8.05;;
21046;SDS011;10682;50.874;3.656;2022-10-19T16:24:49;14.50;;;7.38;;
21046;SDS011;10682;50.874;3.656;2022-10-19T16:27:16;20.85;;;8.15;;
21046;SDS011;10682;50.874;3.656;2022-10-19T16:29:43;17.55;;;7.68;;
21046;SDS011;10682;50.874;3.656;2022-10-19T16:32:10;23.33;;;9.13;;
21046;SDS011;10682;50.874;3.656;2022-10-19T16:34:37;18.83;;;8.85;;
21046;SDS011;10682;50.874;3.656;2022-10-19T16:37:04;17.73;;;8.70;;
21046;SDS011;10682;50.874;3.656;2022-10-19T16:39:32;17.75;;;8.60;;
21046;SDS011;10682;50.874;3.656;2022-10-19T16:42:00;19.80;;;8.85;;
21046;SDS011;10682;50.874;3.656;2022-10-19T16:44:27;19.30;;;9.57;;
21046;SDS011;10682;50.874;3.656;2022-10-19T16:46:54;19.30;;;8.80;;
21046;SDS011;10682;50.874;3.656;2022-10-19T16:49:23;21.52;;;8.98;;
21046;SDS011;10682;50.874;3.656;2022-10-19T16:51:50;26.38;;;9.40;;
21046;SDS011;10682;50.874;3.656;2022-10-19T16:54:22;22.60;;;10.35;;
21046;SDS011;10682;50.874;3.656;2022-10-19T16:56:51;23.85;;;11.07;;
21046;SDS011;10682;50.874;3.656;2022-10-19T16:59:20;23.90;;;9.90;;
21046;SDS011;10682;50.874;3.656;2022-10-19T17:01:47;21.23;;;9.90;;
21046;SDS011;10682;50.874;3.656;2022-10-19T17:04:14;26.63;;;10.35;;
21046;SDS011;10682;50.874;3.656;2022-10-19T17:06:43;22.40;;;10.68;;
21046;SDS011;10682;50.874;3.656;2022-10-19T17:09:10;21.92;;;10.88;;
21046;SDS011;10682;50.874;3.656;2022-10-19T17:11:57;21.20;;;11.00;;
21046;SDS011;10682;50.874;3.656;2022-10-19T17:14:24;23.05;;;11.75;;
21046;SDS011;10682;50.874;3.656;2022-10-19T17:16:51;24.75;;;11.25;;
21046;SDS011;10682;50.874;3.656;2022-10-19T17:19:18;26.38;;;12.07;;
21046;SDS011;10682;50.874;3.656;2022-10-19T17:21:45;24.83;;;11.82;;
21046;SDS011;10682;50.874;3.656;2022-10-19T17:24:15;27.17;;;12.95;;
21046;SDS011;10682;50.874;3.656;2022-10-19T17:26:48;25.90;;;12.65;;
21046;SDS011;10682;50.874;3.656;2022-10-19T17:29:20;24.23;;;12.97;;
21046;SDS011;10682;50.874;3.656;2022-10-19T17:31:48;28.67;;;13.80;;
21046;SDS011;10682;50.874;3.656;2022-10-19T17:34:15;32.30;;;13.70;;
21046;SDS011;10682;50.874;3.656;2022-10-19T17:36:45;33.00;;;14.30;;
21046;SDS011;10682;50.874;3.656;2022-10-19T17:39:17;29.43;;;13.97;;
21046;SDS011;10682;50.874;3.656;2022-10-19T17:41:54;30.73;;;15.03;;
21046;SDS011;10682;50.874;3.656;2022-10-19T17:44:27;29.87;;;14.70;;